sensor_id;sensor_type;location;lat;lon;timestamp;pressure;altitude;pressure_sealevel;temperature;humidity
84413;BME280;74611;53.106;8.778;2024-03-08T00:00:08;102473.84;;;0.46;84.95
84413;BME280;74611;53.106;8.778;2024-03-08T00:02:36;102469.56;;;0.44;83.98
84413;BME280;74611;53.106;8.778;2024-03-08T00:05:04;102474.16;;;0.40;84.35
84413;BME280;74611;53.106;8.778;2024-03-08T00:07:29;102478.66;;;0.38;84.06
84413;BME280;74611;53.106;8.778;2024-03-08T00:09:55;102477.81;;;0.38;84.50
84413;BME280;74611;53.106;8.778;2024-03-08T00:12:21;102477.66;;;0.41;84.06
84413;BME280;74611;53.106;8.778;2024-03-08T00:14:46;102479.81;;;0.33;84.34
84413;BME280;74611;53.106;8.778;2024-03-08T00:17:12;102476.41;;;0.31;84.11
84413;BME280;74611;53.106;8.778;2024-03-08T00:19:37;102478.75;;;0.37;84.08
84413;BME280;74611;53.106;8.778;2024-03-08T00:22:03;102473.72;;;0.32;84.22
84413;BME280;74611;53.106;8.778;2024-03-08T00:24:29;102477.44;;;0.28;83.84
84413;BME280;74611;53.106;8.778;2024-03-08T00:26:56;102478.44;;;0.26;84.42
84413;BME280;74611;53.106;8.778;2024-03-08T00:29:21;102480.75;;;0.32;84.34
84413;BME280;74611;53.106;8.778;2024-03-08T00:34:16;102474.31;;;0.20;84.58
84413;BME280;74611;53.106;8.778;2024-03-08T00:36:45;102475.19;;;0.21;84.13
84413;BME280;74611;53.106;8.778;2024-03-08T00:39:11;102475.09;;;0.22;84.19
84413;BME280;74611;53.106;8.778;2024-03-08T00:41:37;102476.91;;;0.22;84.30
84413;BME280;74611;53.106;8.778;2024-03-08T00:44:03;102467.59;;;0.15;84.47
84413;BME280;74611;53.106;8.778;2024-03-08T00:46:30;102473.88;;;0.12;84.59
84413;BME280;74611;53.106;8.778;2024-03-08T00:48:58;102465.81;;;0.15;84.67
84413;BME280;74611;53.106;8.778;2024-03-08T00:51:23;102459.06;;;0.10;84.73
84413;BME280;74611;53.106;8.778;2024-03-08T00:53:49;102467.91;;;0.09;84.61
84413;BME280;74611;53.106;8.778;2024-03-08T00:56:14;102466.19;;;0.08;84.49
84413;BME280;74611;53.106;8.778;2024-03-08T00:58:40;102468.38;;;-0.01;83.91
84413;BME280;74611;53.106;8.778;2024-03-08T01:01:06;102464.09;;;-0.03;84.94
84413;BME280;74611;53.106;8.778;2024-03-08T01:03:31;102461.22;;;0.02;85.10
84413;BME280;74611;53.106;8.778;2024-03-08T01:05:57;102464.88;;;-0.01;84.74
84413;BME280;74611;53.106;8.778;2024-03-08T01:08:26;102459.81;;;-0.06;84.98
84413;BME280;74611;53.106;8.778;2024-03-08T01:10:53;102444.97;;;-0.07;84.14
84413;BME280;74611;53.106;8.778;2024-03-08T01:13:18;102452.38;;;-0.15;84.20
84413;BME280;74611;53.106;8.778;2024-03-08T01:15:44;102444.41;;;-0.13;84.55
84413;BME280;74611;53.106;8.778;2024-03-08T01:18:11;102431.06;;;-0.10;83.99
84413;BME280;74611;53.106;8.778;2024-03-08T01:20:37;102434.00;;;-0.16;84.90
84413;BME280;74611;53.106;8.778;2024-03-08T01:23:03;102424.47;;;-0.19;84.56
84413;BME280;74611;53.106;8.778;2024-03-08T01:25:35;102423.06;;;-0.26;85.05
84413;BME280;74611;53.106;8.778;2024-03-08T01:28:01;102421.91;;;-0.20;84.44
84413;BME280;74611;53.106;8.778;2024-03-08T01:30:27;102421.38;;;-0.27;84.93
84413;BME280;74611;53.106;8.778;2024-03-08T01:32:53;102409.97;;;-0.27;85.10
84413;BME280;74611;53.106;8.778;2024-03-08T01:35:19;102411.75;;;-0.28;84.98
84413;BME280;74611;53.106;8.778;2024-03-08T01:37:47;102411.59;;;-0.25;84.44
84413;BME280;74611;53.106;8.778;2024-03-08T01:40:15;102400.44;;;-0.30;85.03
84413;BME280;74611;53.106;8.778;2024-03-08T01:42:42;102392.38;;;-0.27;84.55
84413;BME280;74611;53.106;8.778;2024-03-08T01:45:08;102392.38;;;-0.44;84.88
84413;BME280;74611;53.106;8.778;2024-03-08T01:47:34;102390.56;;;-0.43;85.74
84413;BME280;74611;53.106;8.778;2024-03-08T01:50:01;102384.16;;;-0.38;85.17
84413;BME280;74611;53.106;8.778;2024-03-08T01:52:32;102386.56;;;-0.50;84.63
84413;BME280;74611;53.106;8.778;2024-03-08T01:55:03;102381.06;;;-0.46;85.31
84413;BME280;74611;53.106;8.778;2024-03-08T01:57:32;102393.16;;;-0.59;84.93
84413;BME280;74611;53.106;8.778;2024-03-08T02:00:03;102378.72;;;-0.52;85.48
84413;BME280;74611;53.106;8.778;2024-03-08T02:02:33;102378.03;;;-0.55;84.88
84413;BME280;74611;53.106;8.778;2024-03-08T02:05:03;102377.09;;;-0.54;85.13
84413;BME280;74611;53.106;8.778;2024-03-08T02:07:28;102370.50;;;-0.63;85.23
84413;BME280;74611;53.106;8.778;2024-03-08T02:09:54;102378.13;;;-0.57;85.18
84413;BME280;74611;53.106;8.778;2024-03-08T02:12:20;102374.72;;;-0.59;84.96
84413;BME280;74611;53.106;8.778;2024-03-08T02:14:49;102367.81;;;-0.61;85.18
84413;BME280;74611;53.106;8.778;2024-03-08T02:17:14;102365.84;;;-0.58;85.29
84413;BME280;74611;53.106;8.778;2024-03-08T02:19:40;102358.19;;;-0.62;85.37
84413;BME280;74611;53.106;8.778;2024-03-08T02:22:06;102368.72;;;-0.62;85.61
84413;BME280;74611;53.106;8.778;2024-03-08T02:24:32;102364.16;;;-0.59;85.10
84413;BME280;74611;53.106;8.778;2024-03-08T02:26:58;102365.78;;;-0.56;84.75
84413;BME280;74611;53.106;8.778;2024-03-08T02:29:24;102362.59;;;-0.63;85.28
84413;BME280;74611;53.106;8.778;2024-03-08T02:31:52;102362.75;;;-0.66;85.50
84413;BME280;74611;53.106;8.778;2024-03-08T02:34:18;102351.28;;;-0.65;85.70
84413;BME280;74611;53.106;8.778;2024-03-08T02:36:43;102351.06;;;-0.60;85.45
84413;BME280;74611;53.106;8.778;2024-03-08T02:39:09;102350.28;;;-0.62;84.83
84413;BME280;74611;53.106;8.778;2024-03-08T02:41:36;102349.59;;;-0.66;86.49
84413;BME280;74611;53.106;8.778;2024-03-08T02:44:02;102342.56;;;-0.65;86.00
84413;BME280;74611;53.106;8.778;2024-03-08T02:46:27;102341.69;;;-0.66;84.72
84413;BME280;74611;53.106;8.778;2024-03-08T02:48:53;102339.50;;;-0.75;86.26
84413;BME280;74611;53.106;8.778;2024-03-08T02:51:18;102332.25;;;-0.70;86.07
84413;BME280;74611;53.106;8.778;2024-03-08T02:53:45;102331.16;;;-0.66;85.64
84413;BME280;74611;53.106;8.778;2024-03-08T02:56:14;102331.94;;;-0.64;84.94
84413;BME280;74611;53.106;8.778;2024-03-08T02:58:42;102326.03;;;-0.69;85.42
84413;BME280;74611;53.106;8.778;2024-03-08T03:01:08;102324.56;;;-0.74;85.84
84413;BME280;74611;53.106;8.778;2024-03-08T03:03:33;102327.25;;;-0.76;86.52
84413;BME280;74611;53.106;8.778;2024-03-08T03:05:59;102328.13;;;-0.76;85.88
84413;BME280;74611;53.106;8.778;2024-03-08T03:08:26;102321.31;;;-0.80;86.05
84413;BME280;74611;53.106;8.778;2024-03-08T03:10:51;102324.03;;;-0.81;86.38
84413;BME280;74611;53.106;8.778;2024-03-08T03:13:17;102320.31;;;-0.77;85.56
84413;BME280;74611;53.106;8.778;2024-03-08T03:15:46;102324.63;;;-0.76;85.84
84413;BME280;74611;53.106;8.778;2024-03-08T03:18:11;102311.53;;;-0.78;86.05
84413;BME280;74611;53.106;8.778;2024-03-08T03:20:37;102314.25;;;-0.79;85.83
84413;BME280;74611;53.106;8.778;2024-03-08T03:23:06;102317.03;;;-0.82;85.22
84413;BME280;74611;53.106;8.778;2024-03-08T03:25:34;102309.22;;;-0.84;85.62
84413;BME280;74611;53.106;8.778;2024-03-08T03:28:03;102313.00;;;-0.89;87.17
84413;BME280;74611;53.106;8.778;2024-03-08T03:30:30;102312.75;;;-0.85;85.48
84413;BME280;74611;53.106;8.778;2024-03-08T03:33:01;102311.22;;;-0.89;86.53
84413;BME280;74611;53.106;8.778;2024-03-08T03:35:31;102312.53;;;-0.97;86.79
84413;BME280;74611;53.106;8.778;2024-03-08T03:37:57;102315.03;;;-0.94;86.59
84413;BME280;74611;53.106;8.778;2024-03-08T03:40:35;102305.94;;;-0.89;85.93
84413;BME280;74611;53.106;8.778;2024-03-08T03:43:02;102313.84;;;-0.89;86.03
84413;BME280;74611;53.106;8.778;2024-03-08T03:45:31;102314.03;;;-0.92;85.71
84413;BME280;74611;53.106;8.778;2024-03-08T03:48:07;102314.84;;;-0.91;85.92
84413;BME280;74611;53.106;8.778;2024-03-08T03:50:34;102309.34;;;-0.87;85.05
84413;BME280;74611;53.106;8.778;2024-03-08T03:53:01;102310.34;;;-0.89;85.37
84413;BME280;74611;53.106;8.778;2024-03-08T03:55:27;102312.59;;;-0.99;86.54
84413;BME280;74611;53.106;8.778;2024-03-08T03:57:53;102308.97;;;-0.96;86.09
84413;BME280;74611;53.106;8.778;2024-03-08T04:00:19;102316.09;;;-0.98;85.34
84413;BME280;74611;53.106;8.778;2024-03-08T04:02:45;102308.56;;;-1.06;87.01
84413;BME280;74611;53.106;8.778;2024-03-08T04:05:12;102308.25;;;-1.00;86.59
84413;BME280;74611;53.106;8.778;2024-03-08T04:07:38;102309.44;;;-1.05;85.87
84413;BME280;74611;53.106;8.778;2024-03-08T04:10:05;102307.94;;;-1.11;87.98
84413;BME280;74611;53.106;8.778;2024-03-08T04:12:34;102307.09;;;-1.11;88.12
84413;BME280;74611;53.106;8.778;2024-03-08T04:15:00;102310.41;;;-1.08;85.92
84413;BME280;74611;53.106;8.778;2024-03-08T04:17:25;102300.03;;;-1.11;86.56
84413;BME280;74611;53.106;8.778;2024-03-08T04:19:51;102308.47;;;-1.04;85.99
84413;BME280;74611;53.106;8.778;2024-03-08T04:22:17;102302.75;;;-1.12;86.77
84413;BME280;74611;53.106;8.778;2024-03-08T04:24:44;102299.97;;;-1.09;85.42
84413;BME280;74611;53.106;8.778;2024-03-08T04:27:09;102301.06;;;-1.13;86.27
84413;BME280;74611;53.106;8.778;2024-03-08T04:29:35;102293.06;;;-1.12;85.85
84413;BME280;74611;53.106;8.778;2024-03-08T04:32:03;102294.22;;;-1.17;86.90
84413;BME280;74611;53.106;8.778;2024-03-08T04:34:30;102303.03;;;-1.18;87.52
84413;BME280;74611;53.106;8.778;2024-03-08T04:36:59;102294.06;;;-1.14;85.93
84413;BME280;74611;53.106;8.778;2024-03-08T04:39:25;102299.25;;;-1.13;86.15
84413;BME280;74611;53.106;8.778;2024-03-08T04:41:54;102297.78;;;-1.18;86.20
84413;BME280;74611;53.106;8.778;2024-03-08T04:44:22;102298.00;;;-1.23;87.49
84413;BME280;74611;53.106;8.778;2024-03-08T04:46:51;102290.38;;;-1.10;87.63
84413;BME280;74611;53.106;8.778;2024-03-08T04:49:17;102292.38;;;-1.15;86.51
84413;BME280;74611;53.106;8.778;2024-03-08T04:51:42;102291.53;;;-1.16;85.73
84413;BME280;74611;53.106;8.778;2024-03-08T04:54:08;102291.34;;;-1.13;85.92
84413;BME280;74611;53.106;8.778;2024-03-08T04:56:33;102284.75;;;-1.21;86.65
84413;BME280;74611;53.106;8.778;2024-03-08T04:58:59;102287.03;;;-1.14;87.18
84413;BME280;74611;53.106;8.778;2024-03-08T05:01:24;102281.00;;;-1.16;86.59
84413;BME280;74611;53.106;8.778;2024-03-08T05:03:50;102280.28;;;-1.19;86.18
84413;BME280;74611;53.106;8.778;2024-03-08T05:06:16;102271.38;;;-1.17;86.77
84413;BME280;74611;53.106;8.778;2024-03-08T05:08:42;102272.47;;;-1.21;86.60
84413;BME280;74611;53.106;8.778;2024-03-08T05:11:08;102273.41;;;-1.22;85.94
84413;BME280;74611;53.106;8.778;2024-03-08T05:13:37;102272.56;;;-1.22;86.69
84413;BME280;74611;53.106;8.778;2024-03-08T05:16:04;102262.09;;;-1.24;86.62
84413;BME280;74611;53.106;8.778;2024-03-08T05:18:29;102263.03;;;-1.25;86.77
84413;BME280;74611;53.106;8.778;2024-03-08T05:20:57;102269.19;;;-1.26;86.65
84413;BME280;74611;53.106;8.778;2024-03-08T05:23:23;102264.97;;;-1.28;86.95
84413;BME280;74611;53.106;8.778;2024-03-08T05:25:48;102264.97;;;-1.28;86.32
84413;BME280;74611;53.106;8.778;2024-03-08T05:28:14;102257.69;;;-1.23;87.74
84413;BME280;74611;53.106;8.778;2024-03-08T05:30:40;102263.16;;;-1.28;87.59
84413;BME280;74611;53.106;8.778;2024-03-08T05:33:06;102258.84;;;-1.29;87.42
84413;BME280;74611;53.106;8.778;2024-03-08T05:35:38;102255.22;;;-1.26;86.56
84413;BME280;74611;53.106;8.778;2024-03-08T05:38:04;102250.09;;;-1.29;86.55
84413;BME280;74611;53.106;8.778;2024-03-08T05:40:29;102248.16;;;-1.26;88.11
84413;BME280;74611;53.106;8.778;2024-03-08T05:42:58;102250.19;;;-1.31;87.43
84413;BME280;74611;53.106;8.778;2024-03-08T05:45:24;102251.88;;;-1.30;87.37
84413;BME280;74611;53.106;8.778;2024-03-08T05:47:50;102247.47;;;-1.29;86.67
84413;BME280;74611;53.106;8.778;2024-03-08T05:50:17;102253.88;;;-1.35;87.21
84413;BME280;74611;53.106;8.778;2024-03-08T05:52:43;102254.94;;;-1.39;87.24
84413;BME280;74611;53.106;8.778;2024-03-08T05:55:09;102253.06;;;-1.37;87.91
84413;BME280;74611;53.106;8.778;2024-03-08T05:57:35;102252.72;;;-1.29;85.81
84413;BME280;74611;53.106;8.778;2024-03-08T06:00:05;102253.72;;;-1.32;86.76
84413;BME280;74611;53.106;8.778;2024-03-08T06:02:31;102253.88;;;-1.35;86.38
84413;BME280;74611;53.106;8.778;2024-03-08T06:04:57;102250.44;;;-1.37;87.58
84413;BME280;74611;53.106;8.778;2024-03-08T06:07:22;102250.31;;;-1.34;87.19
84413;BME280;74611;53.106;8.778;2024-03-08T06:09:48;102249.41;;;-1.33;86.83
84413;BME280;74611;53.106;8.778;2024-03-08T06:12:14;102248.69;;;-1.36;87.00
84413;BME280;74611;53.106;8.778;2024-03-08T06:14:44;102247.91;;;-1.38;87.81
84413;BME280;74611;53.106;8.778;2024-03-08T06:17:10;102244.28;;;-1.36;87.25
84413;BME280;74611;53.106;8.778;2024-03-08T06:19:37;102243.13;;;-1.30;86.50
84413;BME280;74611;53.106;8.778;2024-03-08T06:22:02;102241.34;;;-1.30;85.61
84413;BME280;74611;53.106;8.778;2024-03-08T06:24:31;102240.56;;;-1.32;86.58
84413;BME280;74611;53.106;8.778;2024-03-08T06:26:57;102222.06;;;-1.30;87.92
84413;BME280;74611;53.106;8.778;2024-03-08T06:29:23;102229.25;;;-1.34;87.72
84413;BME280;74611;53.106;8.778;2024-03-08T06:31:49;102236.16;;;-1.31;88.38
84413;BME280;74611;53.106;8.778;2024-03-08T06:34:15;102222.94;;;-1.30;89.01
84413;BME280;74611;53.106;8.778;2024-03-08T06:36:41;102222.78;;;-1.27;85.88
84413;BME280;74611;53.106;8.778;2024-03-08T06:39:06;102226.28;;;-1.26;88.12
84413;BME280;74611;53.106;8.778;2024-03-08T06:41:37;102220.94;;;-1.25;88.18
84413;BME280;74611;53.106;8.778;2024-03-08T06:44:03;102222.63;;;-1.24;88.22
84413;BME280;74611;53.106;8.778;2024-03-08T06:46:29;102226.97;;;-1.23;86.35
84413;BME280;74611;53.106;8.778;2024-03-08T06:48:54;102231.16;;;-1.19;85.97
84413;BME280;74611;53.106;8.778;2024-03-08T06:51:21;102225.66;;;-1.14;86.29
84413;BME280;74611;53.106;8.778;2024-03-08T06:53:47;102230.78;;;-1.11;87.70
84413;BME280;74611;53.106;8.778;2024-03-08T06:56:14;102232.69;;;-1.15;85.02
84413;BME280;74611;53.106;8.778;2024-03-08T06:58:40;102228.97;;;-1.11;84.94
84413;BME280;74611;53.106;8.778;2024-03-08T07:01:06;102238.59;;;-1.10;85.61
84413;BME280;74611;53.106;8.778;2024-03-08T07:03:33;102234.88;;;-1.06;85.62
84413;BME280;74611;53.106;8.778;2024-03-08T07:05:58;102229.25;;;-0.98;86.32
84413;BME280;74611;53.106;8.778;2024-03-08T07:08:24;102235.75;;;-0.88;86.77
84413;BME280;74611;53.106;8.778;2024-03-08T07:10:50;102229.84;;;-0.93;85.71
84413;BME280;74611;53.106;8.778;2024-03-08T07:13:15;102230.16;;;-0.82;86.80
84413;BME280;74611;53.106;8.778;2024-03-08T07:15:43;102231.00;;;-0.82;86.10
84413;BME280;74611;53.106;8.778;2024-03-08T07:18:08;102226.28;;;-0.75;86.13
84413;BME280;74611;53.106;8.778;2024-03-08T07:20:39;102227.91;;;-0.72;85.94
84413;BME280;74611;53.106;8.778;2024-03-08T07:23:05;102234.50;;;-0.64;84.73
84413;BME280;74611;53.106;8.778;2024-03-08T07:25:31;102224.50;;;-0.57;85.60
84413;BME280;74611;53.106;8.778;2024-03-08T07:27:57;102229.44;;;-0.51;85.77
84413;BME280;74611;53.106;8.778;2024-03-08T07:30:25;102227.47;;;-0.48;85.58
84413;BME280;74611;53.106;8.778;2024-03-08T07:33:09;102223.53;;;-0.39;84.63
84413;BME280;74611;53.106;8.778;2024-03-08T07:35:38;102227.63;;;-0.34;84.05
84413;BME280;74611;53.106;8.778;2024-03-08T07:38:05;102226.66;;;-0.16;84.78
84413;BME280;74611;53.106;8.778;2024-03-08T07:40:37;102221.97;;;-0.11;84.18
84413;BME280;74611;53.106;8.778;2024-03-08T07:43:10;102229.22;;;0.02;83.41
84413;BME280;74611;53.106;8.778;2024-03-08T07:45:37;102221.34;;;0.17;84.19
84413;BME280;74611;53.106;8.778;2024-03-08T07:48:03;102221.75;;;0.25;83.64
84413;BME280;74611;53.106;8.778;2024-03-08T07:50:29;102222.28;;;0.32;83.20
84413;BME280;74611;53.106;8.778;2024-03-08T07:52:54;102220.03;;;0.40;82.54
84413;BME280;74611;53.106;8.778;2024-03-08T07:55:20;102223.94;;;0.48;82.29
84413;BME280;74611;53.106;8.778;2024-03-08T07:57:49;102220.41;;;0.49;83.07
84413;BME280;74611;53.106;8.778;2024-03-08T08:00:15;102220.03;;;0.55;82.30
84413;BME280;74611;53.106;8.778;2024-03-08T08:02:44;102229.47;;;0.59;83.04
84413;BME280;74611;53.106;8.778;2024-03-08T08:05:11;102224.34;;;0.72;82.06
84413;BME280;74611;53.106;8.778;2024-03-08T08:07:37;102224.03;;;0.62;82.67
84413;BME280;74611;53.106;8.778;2024-03-08T08:10:03;102220.69;;;0.74;82.17
84413;BME280;74611;53.106;8.778;2024-03-08T08:12:31;102208.34;;;0.75;82.68
84413;BME280;74611;53.106;8.778;2024-03-08T08:14:59;102218.91;;;0.75;82.63
84413;BME280;74611;53.106;8.778;2024-03-08T08:17:24;102210.06;;;0.76;83.04
84413;BME280;74611;53.106;8.778;2024-03-08T08:19:50;102208.47;;;0.88;82.50
84413;BME280;74611;53.106;8.778;2024-03-08T08:22:15;102209.50;;;0.85;83.45
84413;BME280;74611;53.106;8.778;2024-03-08T08:24:42;102203.69;;;0.94;82.22
84413;BME280;74611;53.106;8.778;2024-03-08T08:27:08;102211.84;;;1.05;81.59
84413;BME280;74611;53.106;8.778;2024-03-08T08:29:34;102214.38;;;1.07;82.59
84413;BME280;74611;53.106;8.778;2024-03-08T08:32:00;102210.72;;;1.09;82.37
84413;BME280;74611;53.106;8.778;2024-03-08T08:34:26;102212.81;;;1.18;82.21
84413;BME280;74611;53.106;8.778;2024-03-08T08:36:52;102208.78;;;1.27;82.38
84413;BME280;74611;53.106;8.778;2024-03-08T08:39:18;102207.78;;;1.43;81.94
84413;BME280;74611;53.106;8.778;2024-03-08T08:41:44;102205.53;;;1.51;82.05
84413;BME280;74611;53.106;8.778;2024-03-08T08:44:09;102206.28;;;1.53;82.45
84413;BME280;74611;53.106;8.778;2024-03-08T08:46:38;102203.44;;;1.71;81.41
84413;BME280;74611;53.106;8.778;2024-03-08T08:49:04;102196.34;;;1.85;81.63
84413;BME280;74611;53.106;8.778;2024-03-08T08:51:31;102193.53;;;1.88;82.76
84413;BME280;74611;53.106;8.778;2024-03-08T08:53:59;102188.19;;;2.02;83.13
84413;BME280;74611;53.106;8.778;2024-03-08T08:56:24;102190.03;;;2.28;80.05
84413;BME280;74611;53.106;8.778;2024-03-08T08:58:51;102197.22;;;2.41;80.83
84413;BME280;74611;53.106;8.778;2024-03-08T09:01:19;102185.72;;;2.54;81.56
84413;BME280;74611;53.106;8.778;2024-03-08T09:03:45;102187.16;;;2.72;78.45
84413;BME280;74611;53.106;8.778;2024-03-08T09:06:11;102185.09;;;2.90;80.82
84413;BME280;74611;53.106;8.778;2024-03-08T09:08:37;102183.19;;;3.04;77.35
84413;BME280;74611;53.106;8.778;2024-03-08T09:11:05;102176.03;;;3.19;81.67
84413;BME280;74611;53.106;8.778;2024-03-08T09:13:32;102172.44;;;3.33;81.01
84413;BME280;74611;53.106;8.778;2024-03-08T09:15:59;102172.53;;;3.44;75.76
84413;BME280;74611;53.106;8.778;2024-03-08T09:18:25;102179.00;;;3.65;80.51
84413;BME280;74611;53.106;8.778;2024-03-08T09:20:50;102170.47;;;3.85;81.26
84413;BME280;74611;53.106;8.778;2024-03-08T09:23:19;102162.19;;;4.02;82.20
84413;BME280;74611;53.106;8.778;2024-03-08T09:25:45;102157.69;;;4.15;77.73
84413;BME280;74611;53.106;8.778;2024-03-08T09:28:12;102148.16;;;4.36;83.36
84413;BME280;74611;53.106;8.778;2024-03-08T09:30:38;102150.13;;;4.45;79.67
84413;BME280;74611;53.106;8.778;2024-03-08T09:33:05;102139.16;;;4.74;83.26
84413;BME280;74611;53.106;8.778;2024-03-08T09:35:31;102137.25;;;4.87;82.39
84413;BME280;74611;53.106;8.778;2024-03-08T09:37:57;102149.25;;;5.03;79.69
84413;BME280;74611;53.106;8.778;2024-03-08T09:40:22;102141.09;;;5.17;77.27
84413;BME280;74611;53.106;8.778;2024-03-08T09:42:49;102136.03;;;5.25;75.43
84413;BME280;74611;53.106;8.778;2024-03-08T09:45:16;102137.84;;;5.36;75.99
84413;BME280;74611;53.106;8.778;2024-03-08T09:47:43;102133.50;;;5.57;77.84
84413;BME280;74611;53.106;8.778;2024-03-08T09:50:10;102125.78;;;5.87;80.71
84413;BME280;74611;53.106;8.778;2024-03-08T09:52:40;102122.00;;;5.79;76.04
84413;BME280;74611;53.106;8.778;2024-03-08T09:55:06;102120.34;;;6.00;77.33
84413;BME280;74611;53.106;8.778;2024-03-08T09:57:33;102123.59;;;6.03;70.83
84413;BME280;74611;53.106;8.778;2024-03-08T09:59:59;102110.72;;;6.20;70.57
84413;BME280;74611;53.106;8.778;2024-03-08T10:02:25;102098.31;;;6.41;78.34
84413;BME280;74611;53.106;8.778;2024-03-08T10:04:51;102097.25;;;6.84;81.15
84413;BME280;74611;53.106;8.778;2024-03-08T10:07:18;102100.69;;;6.96;74.54
84413;BME280;74611;53.106;8.778;2024-03-08T10:09:44;102095.44;;;6.85;73.54
84413;BME280;74611;53.106;8.778;2024-03-08T10:12:16;102096.41;;;6.84;74.21
84413;BME280;74611;53.106;8.778;2024-03-08T10:14:41;102094.81;;;7.23;74.81
84413;BME280;74611;53.106;8.778;2024-03-08T10:17:07;102081.69;;;7.40;80.69
84413;BME280;74611;53.106;8.778;2024-03-08T10:19:33;102094.56;;;7.26;67.89
84413;BME280;74611;53.106;8.778;2024-03-08T10:21:59;102088.81;;;7.60;72.05
84413;BME280;74611;53.106;8.778;2024-03-08T10:24:25;102078.69;;;7.54;70.32
84413;BME280;74611;53.106;8.778;2024-03-08T10:27:01;102067.00;;;8.05;78.20
84413;BME280;74611;53.106;8.778;2024-03-08T10:29:30;102069.66;;;8.05;73.57
84413;BME280;74611;53.106;8.778;2024-03-08T10:31:56;102063.91;;;8.00;73.04
84413;BME280;74611;53.106;8.778;2024-03-08T10:34:23;102058.56;;;8.00;67.62
84413;BME280;74611;53.106;8.778;2024-03-08T10:36:50;102044.69;;;8.44;79.69
84413;BME280;74611;53.106;8.778;2024-03-08T10:39:24;102049.06;;;8.35;74.67
84413;BME280;74611;53.106;8.778;2024-03-08T10:41:56;102056.34;;;8.24;70.10
84413;BME280;74611;53.106;8.778;2024-03-08T10:47:01;102046.06;;;8.96;73.61
84413;BME280;74611;53.106;8.778;2024-03-08T10:52:16;102036.19;;;8.96;68.63
84413;BME280;74611;53.106;8.778;2024-03-08T10:54:44;102042.00;;;8.73;65.60
84413;BME280;74611;53.106;8.778;2024-03-08T10:57:12;102039.97;;;9.03;71.96
84413;BME280;74611;53.106;8.778;2024-03-08T10:59:38;102026.94;;;9.18;78.32
84413;BME280;74611;53.106;8.778;2024-03-08T11:02:04;102021.13;;;9.32;75.42
84413;BME280;74611;53.106;8.778;2024-03-08T11:04:31;102031.84;;;8.86;65.70
84413;BME280;74611;53.106;8.778;2024-03-08T11:07:02;102028.94;;;9.16;67.12
84413;BME280;74611;53.106;8.778;2024-03-08T11:09:36;102019.25;;;9.15;68.47
84413;BME280;74611;53.106;8.778;2024-03-08T11:12:26;102024.41;;;9.26;64.44
84413;BME280;74611;53.106;8.778;2024-03-08T11:15:01;102001.84;;;9.56;77.66
84413;BME280;74611;53.106;8.778;2024-03-08T11:19:59;102000.81;;;9.66;73.11
84413;BME280;74611;53.106;8.778;2024-03-08T11:22:32;102017.31;;;9.35;60.66
84413;BME280;74611;53.106;8.778;2024-03-08T11:25:01;101992.84;;;9.57;73.39
84413;BME280;74611;53.106;8.778;2024-03-08T11:27:29;101990.84;;;9.76;67.18
84413;BME280;74611;53.106;8.778;2024-03-08T11:30:01;101988.47;;;9.56;62.76
84413;BME280;74611;53.106;8.778;2024-03-08T11:32:38;101976.00;;;9.64;69.66
84413;BME280;74611;53.106;8.778;2024-03-08T11:35:07;101975.97;;;9.92;71.07
84413;BME280;74611;53.106;8.778;2024-03-08T11:37:44;101969.69;;;10.36;76.06
84413;BME280;74611;53.106;8.778;2024-03-08T11:40:13;101974.34;;;9.81;63.51
84413;BME280;74611;53.106;8.778;2024-03-08T11:42:45;101975.84;;;10.11;64.34
84413;BME280;74611;53.106;8.778;2024-03-08T11:45:15;101975.28;;;10.42;65.43
84413;BME280;74611;53.106;8.778;2024-03-08T11:47:45;101978.22;;;10.57;63.21
84413;BME280;74611;53.106;8.778;2024-03-08T11:50:12;101955.53;;;10.69;74.55
84413;BME280;74611;53.106;8.778;2024-03-08T11:52:38;101968.59;;;10.46;61.77
84413;BME280;74611;53.106;8.778;2024-03-08T11:55:06;101949.94;;;10.88;74.72
84413;BME280;74611;53.106;8.778;2024-03-08T11:57:32;101948.13;;;10.97;73.06
84413;BME280;74611;53.106;8.778;2024-03-08T11:59:58;101950.09;;;10.87;63.12
84413;BME280;74611;53.106;8.778;2024-03-08T12:03:01;101928.47;;;10.88;68.93
84413;BME280;74611;53.106;8.778;2024-03-08T12:05:26;101930.88;;;10.99;71.73
84413;BME280;74611;53.106;8.778;2024-03-08T12:08:00;101934.09;;;10.77;69.11
84413;BME280;74611;53.106;8.778;2024-03-08T12:10:25;101921.56;;;10.86;70.23
84413;BME280;74611;53.106;8.778;2024-03-08T12:12:53;101933.25;;;10.77;55.99
84413;BME280;74611;53.106;8.778;2024-03-08T12:15:21;101916.22;;;10.86;70.01
84413;BME280;74611;53.106;8.778;2024-03-08T12:17:52;101909.72;;;10.96;71.29
84413;BME280;74611;53.106;8.778;2024-03-08T12:20:28;101900.44;;;11.24;71.09
84413;BME280;74611;53.106;8.778;2024-03-08T12:22:57;101903.78;;;11.18;64.52
84413;BME280;74611;53.106;8.778;2024-03-08T12:25:29;101907.38;;;11.35;57.48
84413;BME280;74611;53.106;8.778;2024-03-08T12:27:56;101889.94;;;11.55;74.71
84413;BME280;74611;53.106;8.778;2024-03-08T12:30:29;101877.84;;;11.51;69.00
84413;BME280;74611;53.106;8.778;2024-03-08T12:32:59;101876.75;;;11.78;73.58
84413;BME280;74611;53.106;8.778;2024-03-08T12:35:30;101873.22;;;11.85;71.15
84413;BME280;74611;53.106;8.778;2024-03-08T12:37:57;101876.75;;;11.78;62.61
84413;BME280;74611;53.106;8.778;2024-03-08T12:40:31;101878.22;;;11.64;57.67
84413;BME280;74611;53.106;8.778;2024-03-08T12:42:57;101865.84;;;11.87;68.33
84413;BME280;74611;53.106;8.778;2024-03-08T12:45:23;101862.78;;;11.98;64.77
84413;BME280;74611;53.106;8.778;2024-03-08T12:47:53;101862.28;;;12.03;57.78
84413;BME280;74611;53.106;8.778;2024-03-08T12:50:20;101852.56;;;11.94;67.80
84413;BME280;74611;53.106;8.778;2024-03-08T12:52:46;101854.91;;;12.05;63.51
84413;BME280;74611;53.106;8.778;2024-03-08T12:55:14;101838.94;;;12.11;70.19
84413;BME280;74611;53.106;8.778;2024-03-08T12:57:42;101833.34;;;12.29;71.28
84413;BME280;74611;53.106;8.778;2024-03-08T13:00:11;101831.03;;;12.26;66.70
84413;BME280;74611;53.106;8.778;2024-03-08T13:02:47;101826.16;;;12.05;64.01